1963 NOT_NAMED (1963023S15155)


IBTrACS version v04r00. Visit IBTrACS website for data access.
Please direct all questions to the IBTrACS Q and A forum

Storm track - Intensity - Wind Radii - Intensity Data - Source Data - All data

Summary Information

Storm ID 1963023S15155
Start Jan 22 23Z
End Jan 25 23Z
ATCF IDs ,SH221963
Track status Best track data.

Storm track plot

Map of storm track

Intensity plots

No Intensity information for this storm


Radial wind information

No radial wind information for this storm


Position and Intensity Table

BASIN ISO_TIME_________ NATURE LAT LON
degrees north degrees east
SP 1963-01-22 23:00:00 NR -15.10 155.00
SP 1963-01-23 00:00:00 TS -15.21 155.11
SP 03:00:00 TS -15.54 155.45
SP 06:00:00 TS -15.91 155.80
SP 09:00:00 TS -16.32 156.16
SP 11:00:00 TS -16.63 156.39
SP 12:00:00 TS -16.78 156.51
SP 15:00:00 TS -17.27 156.84
SP 18:00:00 TS -17.79 157.13
SP 21:00:00 TS -18.33 157.38
SP 23:00:00 TS -18.71 157.49
SP 1963-01-24 00:00:00 TS -18.91 157.50
SP 03:00:00 TS -19.56 157.40
SP 06:00:00 TS -20.17 157.20
SP 09:00:00 TS -20.78 157.01
SP 11:00:00 TS -21.03 156.92
SP 12:00:00 TS -21.06 156.89
SP 15:00:00 TS -20.73 156.84
SP 18:00:00 TS -20.20 156.90
SP 21:00:00 TS -19.82 157.05
SP 23:00:00 TS -19.68 157.26
SP 1963-01-25 00:00:00 TS -19.67 157.42
SP 03:00:00 TS -19.82 158.10
SP 06:00:00 TS -20.17 158.88
SP 09:00:00 TS -20.59 159.56
SP 11:00:00 TS -20.92 159.95
SP 12:00:00 TS -21.09 160.13
SP 15:00:00 TS -21.62 160.57
SP 18:00:00 TS -22.17 160.90
SP 21:00:00 NR -22.80 161.09
SP 23:00:00 NR -23.20 161.20

Source Information

Agency Information
USA bsh221963.txt
TOKYO
CMA
HKO
NEWDELHI
REUNION
BOM
NADI
WELLINGTON
DS824 s_hem.dat:872:22P
TD9636 cons_worldwide_trop_cyclone_18710101-19891231-006:Line=6422
TD9635
NEUMANN
MLC

All available IBTrACS Data

SEASON BASIN SUBBASIN ISO_TIME_________ NATURE LAT LON DIST2LAND LANDFALL IFLAG USA AGENCY USA ATCF_ID USA LAT USA LON USA SSHS DS824 LAT DS824 LON DS824 STAGE TD9636 LAT TD9636 LON TD9636 STAGE STORM SPEED STORM DIR
Year degrees north degrees east km km degrees north degrees east 1 degrees north degrees east degrees north degrees east kts degrees
1963 SP EA 1963-01-22 23:00:00 NR -15.10 155.00 686 686 __________O___ -1 -15.10 155.00 7 9 136
1963 SP EA 1963-01-23 00:00:00 TS -15.21 155.11 702 702 O________OP___ jtwc_sh SH221963 -15.20 155.10 -1 -15.20 155.10 TC -15.21 155.11 7 9 136
1963 SP EA 03:00:00 TS -15.54 155.45 755 755 P________PP___ SH221963 -15.53 155.45 -1 -15.53 155.45 TC -15.56 155.46 7 10 136
1963 SP EA 06:00:00 TS -15.91 155.80 809 809 O________OP___ jtwc_sh SH221963 -15.90 155.80 -1 -15.90 155.80 TC -15.92 155.80 7 10 139
1963 SP EA 09:00:00 TS -16.32 156.16 825 825 P________PP___ SH221963 -16.33 156.16 -1 -16.33 156.16 TC -16.31 156.16 7 11 142
1963 SP EA 11:00:00 TS -16.63 156.39 845 845 P________PO___ SH221963 -16.64 156.39 -1 -16.64 156.39 TC -16.60 156.40 7 11 144
1963 SP EA 12:00:00 TS -16.78 156.51 861 833 O________OP___ jtwc_sh SH221963 -16.80 156.50 -1 -16.80 156.50 TC -16.75 156.52 7 12 146
1963 SP EA 15:00:00 TS -17.27 156.84 828 777 P________PP___ SH221963 -17.28 156.82 -1 -17.28 156.82 TC -17.24 156.88 7 12 149
1963 SP EA 18:00:00 TS -17.79 157.13 777 727 O________OP___ jtwc_sh SH221963 -17.80 157.10 -1 -17.80 157.10 TC -17.77 157.20 7 12 154
1963 SP EA 21:00:00 TS -18.33 157.38 727 704 P________PP___ SH221963 -18.33 157.37 -1 -18.33 157.37 TC -18.32 157.42 7 12 160
1963 SP EA 23:00:00 TS -18.71 157.49 704 698 P________PO___ SH221963 -18.71 157.48 -1 -18.71 157.48 TC -18.70 157.50 7 12 170
1963 SP EA 1963-01-24 00:00:00 TS -18.91 157.50 698 689 O________OP___ jtwc_sh SH221963 -18.90 157.50 -1 -18.90 157.50 TC -18.93 157.50 7 13 186
1963 SP EA 03:00:00 TS -19.56 157.40 694 660 P________PP___ SH221963 -19.51 157.40 -1 -19.51 157.40 TC -19.65 157.38 7 13 193
1963 SP EA 06:00:00 TS -20.17 157.20 651 586 O________OP___ jtwc_sh SH221963 -20.10 157.20 -1 -20.10 157.20 TC -20.32 157.19 7 13 196
1963 SP EA 09:00:00 TS -20.78 157.01 586 562 P________PP___ SH221963 -20.76 157.03 -1 -20.76 157.03 TC -20.82 156.99 7 11 197
1963 SP EA 11:00:00 TS -21.03 156.92 562 553 P________PO___ SH221963 -21.05 156.93 -1 -21.05 156.93 TC -21.00 156.90 7 6 204
1963 SP EA 12:00:00 TS -21.06 156.89 553 553 O________OP___ jtwc_sh SH221963 -21.10 156.90 -1 -21.10 156.90 TC -20.97 156.87 7 5 346
1963 SP EA 15:00:00 TS -20.73 156.84 581 581 P________PP___ SH221963 -20.76 156.84 -1 -20.76 156.84 TC -20.68 156.83 7 9 0
1963 SP EA 18:00:00 TS -20.20 156.90 633 633 O________OP___ jtwc_sh SH221963 -20.20 156.90 -1 -20.20 156.90 TC -20.21 156.89 7 9 12
1963 SP EA 21:00:00 TS -19.82 157.05 681 681 P________PP___ SH221963 -19.84 157.04 -1 -19.84 157.04 TC -19.78 157.08 7 8 33
1963 SP EA 23:00:00 TS -19.68 157.26 703 692 P________PO___ SH221963 -19.72 157.25 -1 -19.72 157.25 TC -19.60 157.30 7 8 66
1963 SP EA 1963-01-25 00:00:00 TS -19.67 157.42 692 618 O________OP___ jtwc_sh SH221963 -19.70 157.40 -1 -19.70 157.40 TC -19.61 157.47 7 12 100
1963 SP EA 03:00:00 TS -19.82 158.10 618 543 P________PP___ SH221963 -19.85 158.10 -1 -19.85 158.10 TC -19.77 158.10 7 15 110
1963 SP EA 06:00:00 TS -20.17 158.88 532 469 O________OP___ jtwc_sh SH221963 -20.20 158.90 -1 -20.20 158.90 TC -20.10 158.84 7 16 119
1963 SP EA 09:00:00 TS -20.59 159.56 459 430 P________PP___ SH221963 -20.61 159.55 -1 -20.61 159.55 TC -20.56 159.57 7 15 127
1963 SP EA 11:00:00 TS -20.92 159.95 421 413 P________PO___ SH221963 -20.93 159.93 -1 -20.93 159.93 TC -20.90 160.00 7 15 133
1963 SP MM 12:00:00 TS -21.09 160.13 415 387 O________OP___ jtwc_sh SH221963 -21.10 160.10 -1 -21.10 160.10 TC -21.08 160.18 7 14 140
1963 SP MM 15:00:00 TS -21.62 160.57 381 376 P________PP___ SH221963 -21.60 160.53 -1 -21.60 160.53 TC -21.63 160.61 7 13 147
1963 SP MM 18:00:00 TS -22.17 160.90 385 382 O________OP___ jtwc_sh SH221963 -22.10 160.90 -1 -22.10 160.90 TC -22.21 160.89 7 13 158
1963 SP MM 21:00:00 NR -22.80 161.09 407 407 __________P___ SH221963 -1 TC -22.80 161.09 7 13 165
1963 SP MM 23:00:00 NR -23.20 161.20 425 __________O___ SH221963 -1 TC -23.20 161.20 7 12 165